Hines, Oregon
Current Conditions -  °F | °C
As of 5:30 PM on Monday 20 Oct 2014 (Local Time) from KBNO Reporting Station
Haze Haze  
Wind Chill: 60°   Ceiling: 2300
Heat Index: 60°   Visibility: 5mi
Dew Point: 40°   Wind: 26mph
Humidity: 47%   Direction: 240°WSW
Pressure: 29.8"   Gusts: 36mph
Location:  43.56°N, 119.08°W
Report Text: KBNO 210030Z AUTO 24023G31KT 5SM HZ BKN023 OVC110 16/04 A2980 RMK AO2 PK WND 25031/0027 PRESRR T01560044
Loading
Personal Weather Stations






























Interactive Weather Map
Tropical Storm Tracking
New forecast layout! Learn more

10-Day Weather Forecast

Advertisements
Track Severe Weather on mobile